Time;durP1;ratioP1;P1;durP2;ratioP2;P2;SDS_P1;SDS_P2;PMS_P1;PMS_P2;Temp;Humidity;BMP_temperature;BMP_pressure;BME280_temperature;BME280_humidity;BME280_pressure;Samples;Min_cycle;Max_cycle;Signal;HPM_P1;HPM_P2
2023/09/29 00:02:05;;;;;;;4.37;3.70;;;;;;;;;;4970643;28;20239;-74
2023/09/29 00:04:30;;;;;;;4.00;3.30;;;;;;;;;;4970423;28;20231;-74
2023/09/29 00:06:56;;;;;;;5.23;3.87;;;;;;;;;;4956795;28;20214;-74
2023/09/29 00:09:22;;;;;;;5.53;3.30;;;;;;;;;;4955320;28;20233;-73
2023/09/29 00:11:48;;;;;;;4.77;3.70;;;;;;;;;;4957047;28;20191;-74
2023/09/29 00:14:13;;;;;;;5.57;3.80;;;;;;;;;;4968477;28;20181;-74
2023/09/29 00:16:39;;;;;;;4.57;3.67;;;;;;;;;;4974930;28;20179;-74
2023/09/29 00:19:04;;;;;;;4.67;3.50;;;;;;;;;;4969313;28;20203;-73
2023/09/29 00:21:29;;;;;;;5.43;3.73;;;;;;;;;;4972182;28;20181;-74
2023/09/29 00:23:55;;;;;;;4.53;3.90;;;;;;;;;;4970686;28;20259;-73
2023/09/29 00:26:20;;;;;;;5.07;3.70;;;;;;;;;;4955119;28;20698;-73
2023/09/29 00:28:45;;;;;;;4.83;3.83;;;;;;;;;;4974717;28;20228;-74
2023/09/29 00:31:11;;;;;;;4.27;3.80;;;;;;;;;;4949915;28;20187;-74
2023/09/29 00:33:36;;;;;;;4.80;3.83;;;;;;;;;;4955710;28;20209;-74
2023/09/29 00:36:01;;;;;;;4.57;3.40;;;;;;;;;;4953833;28;20225;-74
2023/09/29 00:38:26;;;;;;;5.10;3.13;;;;;;;;;;4970740;28;20188;-73
2023/09/29 00:40:51;;;;;;;3.63;3.17;;;;;;;;;;4971061;28;20174;-73
2023/09/29 00:43:17;;;;;;;3.17;2.87;;;;;;;;;;4969214;28;20223;-74
2023/09/29 00:45:42;;;;;;;3.77;3.30;;;;;;;;;;4956262;28;20181;-74
2023/09/29 00:48:10;;;;;;;3.57;3.00;;;;;;;;;;4952982;28;20196;-74
2023/09/29 00:50:37;;;;;;;3.93;3.00;;;;;;;;;;4971211;28;20175;-74
2023/09/29 00:53:11;;;;;;;5.50;2.87;;;;;;;;;;4952172;28;20247;-74
2023/09/29 00:55:37;;;;;;;5.30;3.03;;;;;;;;;;4954652;28;20177;-73
2023/09/29 00:58:02;;;;;;;4.03;2.93;;;;;;;;;;4950514;28;20177;-73
2023/09/29 01:00:32;;;;;;;2.50;2.30;;;;;;;;;;4966221;28;20181;-73
2023/09/29 01:03:05;;;;;;;6.87;3.23;;;;;;;;;;4953387;28;20177;-74
2023/09/29 01:05:32;;;;;;;3.53;2.60;;;;;;;;;;4965485;28;20222;-74
2023/09/29 01:07:58;;;;;;;2.83;2.50;;;;;;;;;;4955320;28;20180;-74
2023/09/29 01:10:24;;;;;;;2.90;2.70;;;;;;;;;;4970581;28;20178;-73
2023/09/29 01:12:49;;;;;;;3.50;2.90;;;;;;;;;;4970109;28;20180;-74
2023/09/29 01:15:15;;;;;;;3.57;3.27;;;;;;;;;;4949917;28;20185;-74
2023/09/29 01:17:43;;;;;;;3.07;2.77;;;;;;;;;;4972907;28;20229;-73
2023/09/29 01:20:16;;;;;;;3.73;2.90;;;;;;;;;;4951552;28;20254;-74
2023/09/29 01:22:47;;;;;;;5.03;3.20;;;;;;;;;;4951706;28;20175;-74
2023/09/29 01:25:13;;;;;;;3.43;3.10;;;;;;;;;;4967362;28;20236;-74
2023/09/29 01:27:39;;;;;;;3.67;2.87;;;;;;;;;;4948258;28;20199;-73
2023/09/29 01:30:06;;;;;;;3.37;2.80;;;;;;;;;;4970271;28;20252;-74
2023/09/29 01:32:32;;;;;;;2.97;2.67;;;;;;;;;;4952887;28;20191;-74
2023/09/29 01:34:57;;;;;;;3.50;2.70;;;;;;;;;;4969834;28;20174;-73
2023/09/29 01:37:22;;;;;;;3.33;2.87;;;;;;;;;;4975726;28;20181;-74
2023/09/29 01:39:48;;;;;;;3.03;2.73;;;;;;;;;;4970504;28;20203;-74
2023/09/29 01:42:13;;;;;;;3.10;2.70;;;;;;;;;;4968879;28;20252;-74
2023/09/29 01:44:38;;;;;;;3.50;2.70;;;;;;;;;;4951119;28;20169;-73
2023/09/29 01:47:03;;;;;;;4.70;3.30;;;;;;;;;;4953505;28;20229;-74
2023/09/29 01:49:30;;;;;;;3.83;2.90;;;;;;;;;;4969119;28;20264;-73
2023/09/29 01:51:55;;;;;;;4.17;2.90;;;;;;;;;;4950414;28;20196;-74
2023/09/29 01:54:20;;;;;;;6.03;2.93;;;;;;;;;;4951805;28;20173;-73
2023/09/29 01:56:46;;;;;;;3.40;3.03;;;;;;;;;;4968678;28;20464;-74
2023/09/29 01:59:12;;;;;;;2.87;2.57;;;;;;;;;;4949892;28;20187;-73
2023/09/29 02:01:38;;;;;;;3.30;2.67;;;;;;;;;;4952256;28;20239;-74
2023/09/29 02:04:04;;;;;;;3.07;2.83;;;;;;;;;;4951797;28;20173;-74
2023/09/29 02:06:29;;;;;;;3.60;3.00;;;;;;;;;;4950078;28;20204;-74
2023/09/29 02:08:57;;;;;;;4.27;3.33;;;;;;;;;;4967177;28;20181;-74
2023/09/29 02:11:22;;;;;;;4.23;3.20;;;;;;;;;;4955790;28;20180;-74
2023/09/29 02:13:48;;;;;;;5.00;3.37;;;;;;;;;;4952650;28;20265;-74
2023/09/29 02:16:15;;;;;;;4.73;3.30;;;;;;;;;;4965349;28;20255;-73
2023/09/29 02:18:41;;;;;;;3.80;2.97;;;;;;;;;;4971972;28;20195;-74
2023/09/29 02:21:06;;;;;;;3.77;2.70;;;;;;;;;;4969652;28;20199;-74
2023/09/29 02:23:33;;;;;;;5.10;2.77;;;;;;;;;;4969368;28;20178;-73
2023/09/29 02:26:01;;;;;;;3.80;3.17;;;;;;;;;;4968715;28;20165;-74
2023/09/29 02:28:31;;;;;;;2.83;2.60;;;;;;;;;;4953342;28;20226;-74
2023/09/29 02:30:57;;;;;;;3.97;2.83;;;;;;;;;;4964382;28;20195;-74
2023/09/29 02:33:25;;;;;;;5.63;2.50;;;;;;;;;;4968405;28;20204;-74
2023/09/29 02:35:50;;;;;;;3.20;2.90;;;;;;;;;;4965050;28;20217;-74
2023/09/29 02:38:16;;;;;;;3.97;3.07;;;;;;;;;;4951953;28;20218;-74
2023/09/29 02:40:41;;;;;;;2.93;2.67;;;;;;;;;;4969209;28;20185;-74
2023/09/29 02:43:07;;;;;;;3.37;2.80;;;;;;;;;;4969167;28;20179;-74
2023/09/29 02:45:32;;;;;;;2.80;2.60;;;;;;;;;;4953520;28;20176;-74
2023/09/29 02:47:57;;;;;;;3.87;2.90;;;;;;;;;;4951465;28;20187;-74
2023/09/29 02:50:24;;;;;;;3.63;3.07;;;;;;;;;;4968215;28;20192;-74
2023/09/29 02:52:51;;;;;;;3.03;2.73;;;;;;;;;;4952160;28;20273;-73
2023/09/29 02:55:17;;;;;;;7.50;2.77;;;;;;;;;;4968623;28;20189;-74
2023/09/29 02:57:42;;;;;;;3.50;2.53;;;;;;;;;;4969128;28;20179;-74
2023/09/29 03:00:11;;;;;;;3.17;2.60;;;;;;;;;;4951129;28;20282;-74
2023/09/29 03:02:36;;;;;;;4.53;2.77;;;;;;;;;;4967407;28;20279;-74
2023/09/29 03:05:01;;;;;;;3.40;2.73;;;;;;;;;;4952289;28;20180;-74
2023/09/29 03:07:27;;;;;;;3.60;2.90;;;;;;;;;;4969514;28;20201;-74
2023/09/29 03:09:55;;;;;;;3.63;2.70;;;;;;;;;;4950935;28;20229;-74
2023/09/29 03:12:21;;;;;;;3.10;2.80;;;;;;;;;;4965114;28;20274;-74
2023/09/29 03:14:46;;;;;;;3.47;3.17;;;;;;;;;;4969508;28;20238;-73
2023/09/29 03:17:12;;;;;;;3.40;2.60;;;;;;;;;;4951415;28;20187;-73
2023/09/29 03:19:38;;;;;;;3.83;2.43;;;;;;;;;;4957370;28;20201;-74
2023/09/29 03:22:03;;;;;;;5.00;2.73;;;;;;;;;;4949900;28;20173;-73
2023/09/29 03:24:28;;;;;;;4.43;3.03;;;;;;;;;;4955076;28;20186;-73
2023/09/29 03:26:53;;;;;;;3.70;2.70;;;;;;;;;;4972855;28;20192;-74
2023/09/29 03:29:19;;;;;;;4.13;2.97;;;;;;;;;;4972170;28;20234;-74
2023/09/29 03:31:45;;;;;;;2.97;2.70;;;;;;;;;;4955543;28;20180;-73
2023/09/29 03:34:10;;;;;;;4.13;2.97;;;;;;;;;;4969957;28;20181;-74
2023/09/29 03:36:35;;;;;;;4.07;2.90;;;;;;;;;;4973895;28;20176;-74
2023/09/29 03:39:05;;;;;;;2.97;2.63;;;;;;;;;;4952614;28;20308;-74
2023/09/29 03:41:30;;;;;;;3.13;2.83;;;;;;;;;;4955325;28;20189;-74
2023/09/29 03:43:56;;;;;;;3.80;3.00;;;;;;;;;;4968334;28;20176;-74
2023/09/29 03:46:24;;;;;;;4.70;3.57;;;;;;;;;;4970390;28;20258;-74
2023/09/29 03:48:49;;;;;;;3.77;2.83;;;;;;;;;;4971757;28;20176;-73
2023/09/29 03:51:24;;;;;;;4.40;3.43;;;;;;;;;;4955429;28;20253;-74
2023/09/29 03:53:53;;;;;;;3.37;3.07;;;;;;;;;;4970820;28;20178;-74
2023/09/29 03:56:22;;;;;;;5.60;3.40;;;;;;;;;;4955368;28;20196;-74
2023/09/29 03:58:48;;;;;;;4.67;3.37;;;;;;;;;;4947915;28;20205;-74
2023/09/29 04:01:14;;;;;;;6.47;3.57;;;;;;;;;;4969841;28;20190;-74
2023/09/29 04:03:40;;;;;;;3.20;2.90;;;;;;;;;;4954665;28;20188;-74
2023/09/29 04:06:05;;;;;;;6.93;3.50;;;;;;;;;;4969577;28;20173;-74
2023/09/29 04:08:31;;;;;;;3.27;2.90;;;;;;;;;;4972089;28;20258;-74
2023/09/29 04:10:57;;;;;;;6.17;3.47;;;;;;;;;;4969272;28;20218;-74
2023/09/29 04:13:22;;;;;;;5.53;3.60;;;;;;;;;;4948663;28;20180;-74
2023/09/29 04:15:47;;;;;;;4.67;3.07;;;;;;;;;;4970763;28;20185;-74
2023/09/29 04:18:12;;;;;;;3.77;3.37;;;;;;;;;;4955182;28;20181;-74
2023/09/29 04:20:38;;;;;;;3.47;3.13;;;;;;;;;;4952759;28;20195;-74
2023/09/29 04:23:06;;;;;;;4.03;3.60;;;;;;;;;;4970279;28;20178;-74
2023/09/29 04:25:31;;;;;;;4.70;2.97;;;;;;;;;;4972631;28;21086;-74
2023/09/29 04:27:57;;;;;;;3.53;3.20;;;;;;;;;;4972525;28;20231;-74
2023/09/29 04:30:22;;;;;;;4.37;3.90;;;;;;;;;;4954354;28;20232;-74
2023/09/29 04:32:47;;;;;;;4.83;3.40;;;;;;;;;;4951634;28;20220;-74
2023/09/29 04:35:13;;;;;;;4.27;2.97;;;;;;;;;;4955283;28;20271;-74
2023/09/29 04:37:38;;;;;;;4.43;3.17;;;;;;;;;;4968959;28;20169;-74
2023/09/29 04:40:04;;;;;;;4.57;3.40;;;;;;;;;;4954807;28;20212;-74
2023/09/29 04:42:29;;;;;;;3.27;2.97;;;;;;;;;;4954866;28;20264;-74
2023/09/29 04:44:54;;;;;;;5.00;3.77;;;;;;;;;;4954652;28;20177;-74
2023/09/29 04:47:20;;;;;;;6.27;3.53;;;;;;;;;;4971334;28;20276;-74
2023/09/29 04:49:45;;;;;;;4.67;3.17;;;;;;;;;;4951738;28;20189;-73
2023/09/29 04:52:10;;;;;;;5.07;3.43;;;;;;;;;;4968203;28;20240;-74
2023/09/29 04:54:35;;;;;;;3.77;3.37;;;;;;;;;;4971455;28;20188;-74
2023/09/29 04:57:01;;;;;;;22.03;5.13;;;;;;;;;;4954890;28;20187;-74
2023/09/29 04:59:26;;;;;;;4.00;3.37;;;;;;;;;;4951398;28;20205;-74
2023/09/29 05:01:51;;;;;;;4.80;3.73;;;;;;;;;;4971236;28;20174;-74
2023/09/29 05:04:16;;;;;;;4.30;3.70;;;;;;;;;;4971482;28;20192;-74
2023/09/29 05:06:43;;;;;;;5.97;3.40;;;;;;;;;;4957020;28;20186;-74
2023/09/29 05:09:11;;;;;;;16.77;6.77;;;;;;;;;;4954319;28;20190;-74
2023/09/29 05:11:36;;;;;;;8.63;3.03;;;;;;;;;;4969550;28;20195;-74
2023/09/29 05:14:02;;;;;;;3.90;3.50;;;;;;;;;;4952774;28;20204;-74
2023/09/29 05:16:27;;;;;;;4.67;3.93;;;;;;;;;;4953602;28;20176;-74
2023/09/29 05:18:53;;;;;;;4.73;3.13;;;;;;;;;;4955813;28;20198;-74
2023/09/29 05:21:20;;;;;;;3.50;3.20;;;;;;;;;;4966379;28;20183;-74
2023/09/29 05:23:45;;;;;;;5.27;3.67;;;;;;;;;;4969119;28;20174;-74
2023/09/29 05:26:10;;;;;;;6.97;3.33;;;;;;;;;;4970978;28;20199;-74
2023/09/29 05:28:37;;;;;;;4.87;3.60;;;;;;;;;;4952313;28;20184;-74
2023/09/29 05:31:03;;;;;;;7.17;3.83;;;;;;;;;;4953835;28;20192;-74
2023/09/29 05:33:29;;;;;;;5.60;3.40;;;;;;;;;;4954078;28;20183;-74
2023/09/29 05:35:55;;;;;;;5.53;3.60;;;;;;;;;;4952417;28;20194;-74
2023/09/29 05:38:21;;;;;;;5.47;3.70;;;;;;;;;;4966802;28;20236;-74
2023/09/29 05:40:47;;;;;;;8.73;3.57;;;;;;;;;;4970435;28;20178;-74
2023/09/29 05:43:12;;;;;;;17.50;5.17;;;;;;;;;;4950306;28;20279;-74
2023/09/29 05:45:38;;;;;;;11.53;3.70;;;;;;;;;;4964284;28;20273;-74
2023/09/29 05:48:03;;;;;;;4.17;3.70;;;;;;;;;;4951460;28;20177;-74
2023/09/29 05:50:29;;;;;;;5.67;3.30;;;;;;;;;;4969460;28;20228;-74
2023/09/29 05:52:54;;;;;;;6.30;3.47;;;;;;;;;;4967021;28;20336;-74
2023/09/29 05:55:19;;;;;;;6.97;4.00;;;;;;;;;;4956473;28;20181;-74
2023/09/29 05:57:44;;;;;;;8.73;4.07;;;;;;;;;;4969488;28;20232;-74
2023/09/29 06:00:13;;;;;;;6.47;3.73;;;;;;;;;;4968971;28;20286;-74
2023/09/29 06:02:38;;;;;;;4.47;3.30;;;;;;;;;;4965788;28;20320;-74
2023/09/29 06:05:04;;;;;;;5.60;3.20;;;;;;;;;;4962850;28;20242;-74
2023/09/29 06:07:29;;;;;;;4.07;3.20;;;;;;;;;;4968769;28;20203;-74
2023/09/29 06:09:54;;;;;;;9.00;3.40;;;;;;;;;;4954687;28;20208;-74
2023/09/29 06:12:19;;;;;;;8.17;3.77;;;;;;;;;;4966982;28;20184;-74
2023/09/29 06:14:45;;;;;;;27.53;6.97;;;;;;;;;;4968391;28;20186;-74
2023/09/29 06:17:10;;;;;;;6.10;3.43;;;;;;;;;;4967481;28;20185;-74
2023/09/29 06:19:35;;;;;;;8.07;3.53;;;;;;;;;;4967192;28;20204;-73
2023/09/29 06:22:00;;;;;;;9.50;4.10;;;;;;;;;;4954102;28;20175;-74
2023/09/29 06:24:25;;;;;;;7.93;4.20;;;;;;;;;;4950377;28;20224;-74
2023/09/29 06:26:51;;;;;;;3.73;3.33;;;;;;;;;;4952098;28;20210;-74
2023/09/29 06:29:16;;;;;;;4.53;3.27;;;;;;;;;;4969021;28;20323;-74
2023/09/29 06:31:41;;;;;;;14.20;4.90;;;;;;;;;;4950099;28;20188;-74
2023/09/29 06:34:07;;;;;;;5.33;3.30;;;;;;;;;;4968349;28;20186;-74
2023/09/29 06:36:33;;;;;;;6.30;3.87;;;;;;;;;;4953355;28;20183;-74
2023/09/29 06:38:58;;;;;;;6.03;3.60;;;;;;;;;;4945127;28;20211;-74
2023/09/29 06:41:23;;;;;;;8.53;3.97;;;;;;;;;;4968950;28;20183;-74
2023/09/29 06:43:49;;;;;;;3.37;3.07;;;;;;;;;;4945672;28;20190;-74
2023/09/29 06:46:14;;;;;;;3.77;3.17;;;;;;;;;;4967763;28;20169;-73
2023/09/29 06:48:40;;;;;;;4.70;2.90;;;;;;;;;;4968899;28;20206;-74
2023/09/29 06:51:05;;;;;;;3.33;3.03;;;;;;;;;;4952726;28;20213;-73
2023/09/29 06:53:31;;;;;;;3.73;3.07;;;;;;;;;;4970062;28;20187;-74
2023/09/29 06:55:57;;;;;;;4.30;3.57;;;;;;;;;;4951055;28;20183;-74
2023/09/29 06:58:23;;;;;;;4.83;3.13;;;;;;;;;;4953194;28;20236;-74
2023/09/29 07:00:49;;;;;;;13.30;4.47;;;;;;;;;;4952787;28;20180;-74
2023/09/29 07:03:15;;;;;;;3.50;2.90;;;;;;;;;;4970190;28;20178;-74
2023/09/29 07:05:40;;;;;;;3.80;3.13;;;;;;;;;;4953119;28;20194;-74
2023/09/29 07:08:05;;;;;;;3.50;3.20;;;;;;;;;;4968965;28;20174;-74
2023/09/29 07:10:30;;;;;;;119.27;17.43;;;;;;;;;;4952189;28;20239;-74
2023/09/29 07:12:56;;;;;;;9.70;8.70;;;;;;;;;;4946735;28;20189;-74
2023/09/29 07:15:21;;;;;;;9.97;7.90;;;;;;;;;;4948815;28;20195;-74
2023/09/29 07:17:47;;;;;;;3.60;3.00;;;;;;;;;;4951407;28;20211;-75
2023/09/29 07:20:12;;;;;;;5.50;3.33;;;;;;;;;;4949032;28;20194;-73
2023/09/29 07:22:38;;;;;;;4.80;3.47;;;;;;;;;;4944315;28;20191;-74
2023/09/29 07:25:03;;;;;;;4.40;3.10;;;;;;;;;;4948908;28;20187;-74
2023/09/29 07:27:30;;;;;;;4.70;3.20;;;;;;;;;;4948500;28;20207;-74
2023/09/29 07:29:56;;;;;;;4.03;2.93;;;;;;;;;;4948912;28;20223;-74
2023/09/29 07:32:21;;;;;;;5.97;3.30;;;;;;;;;;4964380;28;20274;-74
2023/09/29 07:34:46;;;;;;;7.30;3.43;;;;;;;;;;4944533;28;20203;-74
2023/09/29 07:37:12;;;;;;;44.07;6.77;;;;;;;;;;4950035;28;20187;-73
2023/09/29 07:39:37;;;;;;;6.63;3.23;;;;;;;;;;4946656;28;20215;-74
2023/09/29 07:42:02;;;;;;;12.70;3.67;;;;;;;;;;4965397;28;20499;-74
2023/09/29 07:44:28;;;;;;;5.00;3.30;;;;;;;;;;4958347;28;20187;-74
2023/09/29 07:46:53;;;;;;;3.87;3.10;;;;;;;;;;4964114;28;20179;-74
2023/09/29 07:49:19;;;;;;;9.47;3.97;;;;;;;;;;4947477;28;20191;-74
2023/09/29 07:51:44;;;;;;;12.57;3.67;;;;;;;;;;4950020;28;20268;-74
2023/09/29 07:54:09;;;;;;;4.23;2.73;;;;;;;;;;4952936;28;20209;-75
2023/09/29 07:56:35;;;;;;;4.67;3.07;;;;;;;;;;4965058;28;20187;-73
2023/09/29 07:59:00;;;;;;;4.33;3.30;;;;;;;;;;4952202;28;20259;-74
2023/09/29 08:01:25;;;;;;;3.30;2.97;;;;;;;;;;4951358;28;20195;-74
2023/09/29 08:03:50;;;;;;;4.33;2.70;;;;;;;;;;4969638;28;20240;-74
2023/09/29 08:06:17;;;;;;;4.23;2.90;;;;;;;;;;4965537;28;20196;-74
2023/09/29 08:08:42;;;;;;;8.20;3.50;;;;;;;;;;4945568;28;20218;-74
2023/09/29 08:11:07;;;;;;;4.97;3.40;;;;;;;;;;4949532;28;20214;-73
2023/09/29 08:13:32;;;;;;;3.40;3.00;;;;;;;;;;4968250;28;20223;-74
2023/09/29 08:15:58;;;;;;;3.67;3.00;;;;;;;;;;4949267;28;20195;-74
2023/09/29 08:18:23;;;;;;;3.43;3.07;;;;;;;;;;4964380;28;20190;-74
2023/09/29 08:20:55;;;;;;;31.77;6.13;;;;;;;;;;4950670;28;20177;-75
2023/09/29 08:23:20;;;;;;;3.80;3.00;;;;;;;;;;4963511;28;20188;-75
2023/09/29 08:25:46;;;;;;;20.90;4.60;;;;;;;;;;4962521;28;20208;-75
2023/09/29 08:28:13;;;;;;;2.90;2.70;;;;;;;;;;4950496;28;20198;-75
2023/09/29 08:30:38;;;;;;;3.23;2.70;;;;;;;;;;4954647;28;20223;-74
2023/09/29 08:33:03;;;;;;;3.53;2.73;;;;;;;;;;4948192;28;20269;-75
2023/09/29 08:35:29;;;;;;;3.80;3.13;;;;;;;;;;4953379;28;20231;-74
2023/09/29 08:37:54;;;;;;;3.27;2.97;;;;;;;;;;4953290;28;20184;-75
2023/09/29 08:40:19;;;;;;;5.40;3.03;;;;;;;;;;4952692;28;20239;-74
2023/09/29 08:42:45;;;;;;;4.70;3.17;;;;;;;;;;4953549;28;20433;-74
2023/09/29 08:45:14;;;;;;;4.10;3.00;;;;;;;;;;4953522;28;20243;-75
2023/09/29 08:47:42;;;;;;;3.50;3.20;;;;;;;;;;4947185;28;20248;-74
2023/09/29 08:50:11;;;;;;;4.27;2.90;;;;;;;;;;4970433;28;20468;-74
2023/09/29 08:52:36;;;;;;;3.17;2.90;;;;;;;;;;4966269;28;20180;-75
2023/09/29 08:55:05;;;;;;;3.30;3.00;;;;;;;;;;4970317;28;20175;-75
2023/09/29 08:57:30;;;;;;;3.57;2.97;;;;;;;;;;4968134;28;20188;-75
2023/09/29 08:59:56;;;;;;;4.03;2.80;;;;;;;;;;4954972;28;20197;-75
2023/09/29 09:02:24;;;;;;;3.95;3.45;;;;;;;;;;4966642;28;20269;-75
2023/09/29 09:04:50;;;;;;;3.40;3.10;;;;;;;;;;4967066;28;20180;-75
2023/09/29 09:07:15;;;;;;;3.10;2.80;;;;;;;;;;4954723;28;20189;-74
2023/09/29 09:09:52;;;;;;;3.50;3.20;;;;;;;;;;4965602;28;20266;-75
2023/09/29 09:12:17;;;;;;;3.40;3.10;;;;;;;;;;4964369;28;20188;-75
2023/09/29 09:14:46;;;;;;;16.60;3.88;;;;;;;;;;4965913;28;20177;-75
2023/09/29 09:17:11;;;;;;;5.13;3.10;;;;;;;;;;4954075;28;20220;-75
2023/09/29 09:19:50;;;;;;;4.10;3.35;;;;;;;;;;4966013;28;20232;-75
2023/09/29 09:22:16;;;;;;;8.57;3.42;;;;;;;;;;4946822;28;20184;-75
2023/09/29 09:24:42;;;;;;;4.72;3.05;;;;;;;;;;4948428;28;20180;-76
2023/09/29 09:27:08;;;;;;;4.72;2.92;;;;;;;;;;4947767;28;20205;-76
2023/09/29 09:29:42;;;;;;;3.58;3.08;;;;;;;;;;4967395;28;20236;-75
2023/09/29 09:32:10;;;;;;;10.50;3.05;;;;;;;;;;4968451;28;20180;-75
2023/09/29 09:34:36;;;;;;;4.85;3.00;;;;;;;;;;4949437;28;20189;-75
2023/09/29 09:37:02;;;;;;;3.95;3.17;;;;;;;;;;4947239;28;20193;-75
2023/09/29 09:39:28;;;;;;;6.00;3.30;;;;;;;;;;4948851;28;20209;-75
2023/09/29 09:41:54;;;;;;;3.65;3.10;;;;;;;;;;4952996;28;20324;-75
2023/09/29 09:44:20;;;;;;;3.45;3.15;;;;;;;;;;4949999;28;20185;-75
2023/09/29 09:46:53;;;;;;;3.20;2.90;;;;;;;;;;4951054;28;20191;-75
2023/09/29 09:49:22;;;;;;;3.45;2.92;;;;;;;;;;4949060;28;20326;-75
2023/09/29 09:51:50;;;;;;;4.65;2.88;;;;;;;;;;4949804;28;20196;-75
2023/09/29 09:54:19;;;;;;;4.13;3.40;;;;;;;;;;4950224;28;20185;-74
2023/09/29 09:57:00;;;;;;;3.83;3.00;;;;;;;;;;4964987;28;20180;-75
2023/09/29 09:59:27;;;;;;;6.40;3.65;;;;;;;;;;4947723;28;20204;-75
2023/09/29 10:01:53;;;;;;;7.70;3.85;;;;;;;;;;4965982;28;20173;-75
2023/09/29 10:04:20;;;;;;;4.10;2.97;;;;;;;;;;4948493;28;20187;-77
2023/09/29 10:06:45;;;;;;;4.25;2.90;;;;;;;;;;4955827;28;20260;-76
2023/09/29 10:09:11;;;;;;;3.10;2.80;;;;;;;;;;4966779;28;20273;-75
2023/09/29 10:11:37;;;;;;;3.88;2.75;;;;;;;;;;4947134;28;20185;-75
2023/09/29 10:14:03;;;;;;;3.78;3.00;;;;;;;;;;4949761;28;20193;-75
2023/09/29 10:16:28;;;;;;;4.82;2.90;;;;;;;;;;4962477;28;20180;-76
2023/09/29 10:18:56;;;;;;;3.17;2.70;;;;;;;;;;4945349;28;20215;-75
2023/09/29 10:21:21;;;;;;;11.15;3.50;;;;;;;;;;4944264;28;20177;-76
2023/09/29 10:23:50;;;;;;;12.25;3.88;;;;;;;;;;4950134;28;20176;-75
2023/09/29 10:26:16;;;;;;;11.98;4.20;;;;;;;;;;4950107;28;20177;-76
2023/09/29 10:28:41;;;;;;;4.82;3.15;;;;;;;;;;4948524;28;20191;-75
2023/09/29 10:31:08;;;;;;;4.32;3.30;;;;;;;;;;4950461;28;20225;-76
2023/09/29 10:33:43;;;;;;;3.65;2.90;;;;;;;;;;4955362;28;20320;-74
2023/09/29 10:36:09;;;;;;;3.88;3.30;;;;;;;;;;4968294;28;20509;-76
2023/09/29 10:38:35;;;;;;;5.88;3.20;;;;;;;;;;4967554;28;20181;-75
2023/09/29 10:41:01;;;;;;;4.22;3.80;;;;;;;;;;4952663;28;20181;-75
2023/09/29 10:43:26;;;;;;;18.50;5.45;;;;;;;;;;4948142;28;20347;-75
2023/09/29 10:45:52;;;;;;;18.05;5.53;;;;;;;;;;4946760;28;20268;-75
2023/09/29 10:48:23;;;;;;;4.90;3.25;;;;;;;;;;4950442;28;20183;-76
2023/09/29 10:50:49;;;;;;;10.45;4.03;;;;;;;;;;4953689;28;20255;-76
2023/09/29 10:53:15;;;;;;;7.85;4.07;;;;;;;;;;4949481;28;20180;-75
2023/09/29 10:55:44;;;;;;;6.28;3.70;;;;;;;;;;4965428;28;20181;-76
2023/09/29 10:58:14;;;;;;;3.63;3.20;;;;;;;;;;4963531;28;20177;-76
2023/09/29 11:00:40;;;;;;;9.32;4.18;;;;;;;;;;4950489;28;20240;-76
2023/09/29 11:03:07;;;;;;;3.58;3.28;;;;;;;;;;4944978;28;20180;-76
2023/09/29 11:05:32;;;;;;;4.50;3.60;;;;;;;;;;4951904;28;20208;-75
2023/09/29 11:07:58;;;;;;;5.50;3.40;;;;;;;;;;4950769;28;20177;-75
2023/09/29 11:10:24;;;;;;;3.63;3.25;;;;;;;;;;4946941;28;20303;-75
2023/09/29 11:12:50;;;;;;;6.78;3.90;;;;;;;;;;4962502;28;20264;-75
2023/09/29 11:15:16;;;;;;;3.42;3.13;;;;;;;;;;4955144;28;20181;-75
2023/09/29 11:17:48;;;;;;;4.57;3.20;;;;;;;;;;4949587;28;20181;-75
2023/09/29 11:20:16;;;;;;;3.33;3.03;;;;;;;;;;4949932;28;20204;-76
2023/09/29 11:22:42;;;;;;;3.92;3.63;;;;;;;;;;4961487;28;20177;-75
2023/09/29 11:25:15;;;;;;;4.38;3.90;;;;;;;;;;4951041;28;20192;-75
2023/09/29 11:27:47;;;;;;;5.80;3.50;;;;;;;;;;4946886;28;20201;-75
2023/09/29 11:30:13;;;;;;;3.33;2.95;;;;;;;;;;4944370;28;20387;-75
2023/09/29 11:32:38;;;;;;;4.10;3.35;;;;;;;;;;4967203;28;20279;-75
2023/09/29 11:35:13;;;;;;;5.07;3.50;;;;;;;;;;4966234;28;20184;-75
2023/09/29 11:37:38;;;;;;;4.65;3.20;;;;;;;;;;4965137;28;20239;-75
2023/09/29 11:40:11;;;;;;;3.58;3.25;;;;;;;;;;4965895;28;20283;-75
2023/09/29 11:42:36;;;;;;;3.88;3.13;;;;;;;;;;4943646;28;20188;-75
2023/09/29 11:45:07;;;;;;;4.90;3.55;;;;;;;;;;4951117;28;20173;-75
2023/09/29 11:47:33;;;;;;;3.85;2.90;;;;;;;;;;4951538;28;20181;-75
2023/09/29 11:49:58;;;;;;;4.07;3.67;;;;;;;;;;4965631;28;20177;-75
2023/09/29 11:52:23;;;;;;;3.83;3.42;;;;;;;;;;4967601;28;20191;-75
2023/09/29 11:54:49;;;;;;;3.30;3.00;;;;;;;;;;4952352;28;20197;-75
2023/09/29 11:57:14;;;;;;;3.20;2.78;;;;;;;;;;4971017;28;20189;-75
2023/09/29 11:59:40;;;;;;;7.32;3.20;;;;;;;;;;4969551;28;20212;-75
2023/09/29 12:02:05;;;;;;;3.42;3.13;;;;;;;;;;4969954;28;20185;-75
2023/09/29 12:04:33;;;;;;;5.15;3.72;;;;;;;;;;4954512;28;20376;-75
2023/09/29 12:06:58;;;;;;;9.90;3.78;;;;;;;;;;4965927;28;20184;-76
2023/09/29 12:09:24;;;;;;;5.30;2.90;;;;;;;;;;4953415;28;20188;-75
2023/09/29 12:11:49;;;;;;;13.30;3.95;;;;;;;;;;4954266;28;20181;-75
2023/09/29 12:14:14;;;;;;;11.50;3.22;;;;;;;;;;4953600;28;20181;-75
2023/09/29 12:16:39;;;;;;;6.47;3.22;;;;;;;;;;4971320;28;20181;-75
2023/09/29 12:19:05;;;;;;;10.02;3.97;;;;;;;;;;4966464;28;20304;-74
2023/09/29 12:21:31;;;;;;;4.95;3.45;;;;;;;;;;4955483;28;20186;-75
2023/09/29 12:23:56;;;;;;;4.88;3.20;;;;;;;;;;4956075;28;20271;-76
2023/09/29 12:26:21;;;;;;;3.25;2.95;;;;;;;;;;4954361;28;20180;-75
2023/09/29 12:28:47;;;;;;;4.00;2.97;;;;;;;;;;4969638;28;20228;-75
2023/09/29 12:31:16;;;;;;;4.47;3.42;;;;;;;;;;4956295;28;20177;-75
2023/09/29 12:33:41;;;;;;;3.30;3.00;;;;;;;;;;4952859;28;20287;-76
2023/09/29 12:36:08;;;;;;;3.53;3.22;;;;;;;;;;4955540;28;20244;-76
2023/09/29 12:38:33;;;;;;;3.30;2.63;;;;;;;;;;4953928;28;20197;-74
2023/09/29 12:40:58;;;;;;;6.18;3.30;;;;;;;;;;4956521;28;20185;-75
2023/09/29 12:43:23;;;;;;;3.55;2.88;;;;;;;;;;4955129;28;20181;-75
2023/09/29 12:45:49;;;;;;;3.47;3.25;;;;;;;;;;4966162;28;20184;-75
2023/09/29 12:48:14;;;;;;;3.25;2.90;;;;;;;;;;4947536;28;20181;-75
2023/09/29 12:50:40;;;;;;;3.25;2.90;;;;;;;;;;4971311;28;20200;-75
2023/09/29 12:53:06;;;;;;;5.90;2.75;;;;;;;;;;4967236;28;20181;-76
2023/09/29 12:55:31;;;;;;;4.05;2.60;;;;;;;;;;4968232;28;20192;-75
2023/09/29 12:58:02;;;;;;;4.10;2.88;;;;;;;;;;4951994;28;20189;-76
2023/09/29 13:00:28;;;;;;;3.42;2.75;;;;;;;;;;4947432;28;20296;-75
2023/09/29 13:02:54;;;;;;;3.38;2.75;;;;;;;;;;4968143;28;20177;-75
2023/09/29 13:05:21;;;;;;;3.97;2.50;;;;;;;;;;4954825;28;20248;-74
2023/09/29 13:07:49;;;;;;;4.35;2.70;;;;;;;;;;4953198;28;20239;-75
2023/09/29 13:10:15;;;;;;;3.05;2.40;;;;;;;;;;4952348;28;20181;-74
2023/09/29 13:12:40;;;;;;;9.93;3.20;;;;;;;;;;4963061;28;20195;-75
2023/09/29 13:15:08;;;;;;;5.15;2.95;;;;;;;;;;4968943;28;20192;-75
2023/09/29 13:17:33;;;;;;;4.15;3.25;;;;;;;;;;4953188;28;20195;-74
2023/09/29 13:19:59;;;;;;;6.80;2.83;;;;;;;;;;4970529;28;20196;-75
2023/09/29 13:22:25;;;;;;;3.67;3.33;;;;;;;;;;4951579;28;20181;-75
2023/09/29 13:24:50;;;;;;;4.40;3.10;;;;;;;;;;4951360;28;20184;-75
2023/09/29 13:27:15;;;;;;;3.75;3.17;;;;;;;;;;4952738;28;20208;-76
2023/09/29 13:29:41;;;;;;;5.90;3.00;;;;;;;;;;4951683;28;20292;-75
2023/09/29 13:32:06;;;;;;;4.70;3.15;;;;;;;;;;4951545;28;20185;-74
2023/09/29 13:34:31;;;;;;;3.80;2.90;;;;;;;;;;4946424;28;20195;-75
2023/09/29 13:36:56;;;;;;;3.80;3.45;;;;;;;;;;4966176;28;20219;-75
2023/09/29 13:39:22;;;;;;;3.78;3.47;;;;;;;;;;4954595;28;20259;-74
2023/09/29 13:41:47;;;;;;;5.97;3.65;;;;;;;;;;4954860;28;20180;-71
2023/09/29 13:44:12;;;;;;;4.38;3.83;;;;;;;;;;4969827;28;20169;-70
2023/09/29 13:46:38;;;;;;;6.78;3.67;;;;;;;;;;4968946;28;20187;-70
2023/09/29 13:49:03;;;;;;;5.57;3.55;;;;;;;;;;4953373;28;20180;-70
2023/09/29 13:51:28;;;;;;;5.63;3.28;;;;;;;;;;4965485;28;20267;-71
2023/09/29 13:53:54;;;;;;;5.90;3.75;;;;;;;;;;4966502;28;20263;-70
2023/09/29 13:56:19;;;;;;;7.20;3.53;;;;;;;;;;4965700;28;20235;-70
2023/09/29 13:58:45;;;;;;;3.53;3.22;;;;;;;;;;4950369;28;20184;-71
2023/09/29 14:01:11;;;;;;;7.05;3.47;;;;;;;;;;4967353;28;20188;-72
2023/09/29 14:03:36;;;;;;;4.95;3.60;;;;;;;;;;4969490;28;20786;-72
2023/09/29 14:06:02;;;;;;;7.18;3.33;;;;;;;;;;4948634;28;20189;-72
2023/09/29 14:08:27;;;;;;;5.03;3.38;;;;;;;;;;4968767;28;20168;-71
2023/09/29 14:10:53;;;;;;;4.18;3.53;;;;;;;;;;4954461;28;20188;-71
2023/09/29 14:13:18;;;;;;;3.47;3.17;;;;;;;;;;4949425;28;20275;-72
2023/09/29 14:15:43;;;;;;;5.13;3.47;;;;;;;;;;4951603;28;20291;-72
2023/09/29 14:18:09;;;;;;;4.38;3.63;;;;;;;;;;4969897;28;20189;-71
2023/09/29 14:20:35;;;;;;;5.18;3.30;;;;;;;;;;4969523;28;20381;-71
2023/09/29 14:23:04;;;;;;;5.10;3.45;;;;;;;;;;4954402;28;20185;-71
2023/09/29 14:25:29;;;;;;;4.75;3.60;;;;;;;;;;4962994;28;20177;-71
2023/09/29 14:27:55;;;;;;;4.03;3.58;;;;;;;;;;4957353;28;20197;-72
2023/09/29 14:30:20;;;;;;;4.80;3.67;;;;;;;;;;4947513;28;20228;-71
2023/09/29 14:32:45;;;;;;;5.57;3.78;;;;;;;;;;4960403;28;20216;-72
2023/09/29 14:35:11;;;;;;;6.05;3.65;;;;;;;;;;4954727;28;20185;-71
2023/09/29 14:37:38;;;;;;;4.70;3.53;;;;;;;;;;4954068;28;20234;-71